Time;durP1;ratioP1;P1;durP2;ratioP2;P2;SDS_P1;SDS_P2;PMS_P1;PMS_P2;Temp;Humidity;BMP_temperature;BMP_pressure;BME280_temperature;BME280_humidity;BME280_pressure;Samples;Min_cycle;Max_cycle;Signal;HPM_P1;HPM_P2
2022/01/07 00:02:00;;;;;;;0.88;0.88;;;;;;;-2.89;46.07;92714.97;5044669;28;20127;-89
2022/01/07 00:04:57;;;;;;;2.78;0.80;;;;;;;-2.54;46.36;92779.63;5056283;28;20109;-89
2022/01/07 00:07:31;;;;;;;0.88;0.80;;;;;;;-2.64;46.12;92766.41;5055776;28;20044;-88
2022/01/07 00:10:02;;;;;;;1.35;0.93;;;;;;;-2.93;45.67;92717.13;5039639;28;20032;-89
2022/01/07 00:12:33;;;;;;;0.80;0.80;;;;;;;-2.95;45.43;92721.66;5029790;28;20037;-89
2022/01/07 00:15:19;;;;;;;0.90;0.90;;;;;;;-2.68;45.91;92765.22;5042281;28;20025;-90
2022/01/07 00:18:01;;;;;;;0.80;0.80;;;;;;;-2.95;46.77;92721.66;5066897;28;20139;-89
2022/01/07 00:20:32;;;;;;;1.10;0.90;;;;;;;-3.01;46.32;92722.47;5038048;28;20040;-89
2022/01/07 00:23:00;;;;;;;0.93;0.90;;;;;;;-2.73;46.00;92761.47;5037682;28;20190;-88
2022/01/07 00:25:46;;;;;;;1.52;0.98;;;;;;;-2.99;46.55;92725.63;5039982;28;20127;-89
2022/01/07 00:28:21;;;;;;;0.82;0.80;;;;;;;-2.72;46.32;92765.63;5038962;28;20167;-88
2022/01/07 00:30:55;;;;;;;0.82;0.80;;;;;;;-2.82;46.18;92747.28;5054586;28;20041;-89
2022/01/07 00:33:26;;;;;;;1.48;1.23;;;;;;;-2.54;46.42;92797.56;5049479;28;20040;-89
2022/01/07 00:36:12;;;;;;;0.80;0.80;;;;;;;-2.72;46.34;92773.31;5052730;28;20041;-89
2022/01/07 00:38:43;;;;;;;0.88;0.88;;;;;;;-3.03;46.16;92732.13;5036080;28;20041;-89
2022/01/07 00:41:09;;;;;;;0.85;0.85;;;;;;;-3.11;46.14;92717.72;5035424;28;20033;-89
2022/01/07 00:43:48;;;;;;;1.20;0.90;;;;;;;-3.14;46.54;92718.91;5058210;28;20381;-90
2022/01/07 00:46:19;;;;;;;1.00;0.82;;;;;;;-2.94;46.42;92748.88;5054959;28;20113;-90
2022/01/07 00:48:47;;;;;;;0.80;0.80;;;;;;;-3.17;46.83;92729.56;5056156;28;20070;-89
2022/01/07 00:51:36;;;;;;;3.72;0.93;;;;;;;-3.00;46.80;92752.22;5057093;28;20034;-90
2022/01/07 00:54:20;;;;;;;0.77;0.77;;;;;;;-2.95;47.01;92767.78;5051163;28;20075;-89
2022/01/07 00:56:49;;;;;;;0.82;0.80;;;;;;;-3.07;46.56;92754.00;5004552;28;20041;-89
2022/01/07 00:59:30;;;;;;;1.00;0.90;;;;;;;-2.97;46.60;92772.34;5034836;28;20078;-89
2022/01/07 01:02:08;;;;;;;1.25;0.90;;;;;;;-3.25;46.56;92726.41;5047745;28;20469;-88
2022/01/07 01:04:36;;;;;;;1.02;0.90;;;;;;;-3.26;47.12;92729.97;5053407;28;20040;-88
2022/01/07 01:07:35;;;;;;;;;;;;;;;;;;;;;
2022/01/07 01:10:08;;;;;;;0.80;0.80;;;;;;;-3.20;47.46;92741.97;5035234;28;20044;-89
2022/01/07 01:12:41;;;;;;;0.70;0.70;;;;;;;-3.14;47.11;92754.78;5049714;28;20042;-88
2022/01/07 01:15:14;;;;;;;0.75;0.75;;;;;;;-3.03;47.50;92770.53;5052333;28;20071;-88
2022/01/07 01:17:49;;;;;;;1.02;0.90;;;;;;;-3.07;47.38;92764.22;5045800;28;20040;-89
2022/01/07 01:20:17;;;;;;;1.80;1.00;;;;;;;-3.11;47.16;92766.38;5033210;28;20040;-88
2022/01/07 01:22:46;;;;;;;0.80;0.80;;;;;;;-3.04;47.35;92779.19;5052725;28;20032;-89
2022/01/07 01:25:22;;;;;;;0.95;0.90;;;;;;;-3.07;47.79;92772.69;5051940;28;20029;-88
2022/01/07 01:28:02;;;;;;;0.85;0.85;;;;;;;-3.01;47.43;92781.38;5054216;28;20397;-89
2022/01/07 01:30:38;;;;;;;0.77;0.77;;;;;;;-3.32;48.22;92740.97;5039124;28;20039;-88
2022/01/07 01:33:23;;;;;;;1.83;1.10;;;;;;;-3.40;47.75;92736.81;5054642;28;20052;-89
2022/01/07 01:36:03;;;;;;;1.15;1.05;;;;;;;-3.33;47.73;92760.66;5038436;28;20038;-89
2022/01/07 01:38:34;;;;;;;1.17;0.98;;;;;;;-3.25;47.45;92773.28;5058060;28;20028;-89
2022/01/07 01:41:31;;;;;;;;;;;;;;;;;;;;;
2022/01/07 01:44:04;;;;;;;1.05;0.82;;;;;;;-3.05;47.54;92798.13;5050576;28;20115;-89
2022/01/07 01:46:37;;;;;;;1.10;1.00;;;;;;;-3.06;47.73;92797.34;5050694;28;20041;-89
2022/01/07 01:49:06;;;;;;;1.13;1.00;;;;;;;-2.98;47.61;92802.25;5037056;28;20074;-89
2022/01/07 01:51:49;;;;;;;1.85;1.23;;;;;;;-2.98;47.91;92796.34;5055995;28;20458;-90
2022/01/07 01:54:22;;;;;;;2.25;1.33;;;;;;;-3.26;48.24;92751.22;5034359;28;20033;-88
2022/01/07 01:56:54;;;;;;;1.38;1.17;;;;;;;-3.05;48.81;92790.44;5017678;28;20052;-89
2022/01/07 01:59:29;;;;;;;2.72;1.30;;;;;;;-3.34;48.61;92743.72;5035645;28;20040;-89
2022/01/07 02:02:21;;;;;;;2.47;1.42;;;;;;;-3.02;49.60;92792.59;5072237;28;20048;-89
2022/01/07 02:05:03;;;;;;;2.75;1.52;;;;;;;-3.44;49.89;92733.09;5041240;28;20041;-89
2022/01/07 02:10:29;;;;;;;3.13;1.67;;;;;;;-3.10;49.95;92780.00;5046516;28;20076;-89
2022/01/07 02:13:00;;;;;;;2.78;1.55;;;;;;;-3.06;49.95;92791.41;5038002;28;20049;-89
2022/01/07 02:15:42;;;;;;;2.15;1.52;;;;;;;-3.11;50.33;92783.53;5053659;28;20048;-90
2022/01/07 02:18:20;;;;;;;2.60;1.45;;;;;;;-3.40;50.85;92737.63;5037291;28;20131;-90
2022/01/07 02:20:51;;;;;;;5.38;1.55;;;;;;;-3.11;51.11;92780.97;5036579;28;20045;-88
2022/01/07 02:23:37;;;;;;;2.90;1.58;;;;;;;-3.29;51.07;92750.81;5036201;28;20040;-89
2022/01/07 02:26:06;;;;;;;2.28;1.40;;;;;;;-3.42;50.78;92726.78;5038451;28;20033;-89
2022/01/07 02:28:37;;;;;;;2.35;1.30;;;;;;;-3.28;51.38;92753.19;5037032;28;20508;-89
2022/01/07 02:31:22;;;;;;;2.10;1.30;;;;;;;-3.41;50.95;92735.25;5052053;28;20515;-90
2022/01/07 02:33:57;;;;;;;;;;;;;;;;;;;;;
2022/01/07 02:36:37;;;;;;;3.97;1.48;;;;;;;-3.19;50.77;92772.50;5052729;28;20140;-89
2022/01/07 02:39:06;;;;;;;2.20;1.35;;;;;;;-3.30;50.46;92750.03;5053639;28;20051;-89
2022/01/07 02:41:37;;;;;;;2.33;1.30;;;;;;;-3.16;50.68;92771.31;5039224;28;20110;-89
2022/01/07 02:44:24;;;;;;;2.90;1.33;;;;;;;-3.23;50.20;92755.94;5052928;28;20036;-89
2022/01/07 02:47:05;;;;;;;2.00;1.25;;;;;;;-3.06;49.83;92794.78;5071512;28;20477;-88
2022/01/07 02:50:04;;;;;;;2.38;1.30;;;;;;;-3.50;50.26;92718.50;5053102;28;20043;-89
2022/01/07 02:52:37;;;;;;;1.88;1.23;;;;;;;-3.19;49.75;92769.94;5052203;28;20064;-89
2022/01/07 02:55:03;;;;;;;2.00;1.27;;;;;;;-3.45;49.40;92731.50;5037124;28;20041;-89
2022/01/07 02:57:34;;;;;;;1.58;1.10;;;;;;;-3.46;49.19;92733.28;5052520;28;20051;-90
2022/01/07 03:00:03;;;;;;;1.95;1.30;;;;;;;-3.17;48.50;92764.63;5016625;28;20060;-89
2022/01/07 03:02:31;;;;;;;2.78;1.27;;;;;;;-3.14;48.97;92769.34;5007818;28;20061;-88
2022/01/07 03:05:02;;;;;;;2.40;1.40;;;;;;;-3.42;49.41;92731.13;5013489;28;20064;-89
2022/01/07 03:07:44;;;;;;;1.55;1.25;;;;;;;-3.28;49.21;92753.19;5029723;28;20116;-89
2022/01/07 03:10:31;;;;;;;1.35;1.10;;;;;;;-3.29;49.82;92756.72;5014898;28;20034;-89
2022/01/07 03:13:03;;;;;;;1.80;1.10;;;;;;;-3.44;49.87;92730.53;5019626;28;20041;-89
2022/01/07 03:15:48;;;;;;;1.85;1.30;;;;;;;-3.08;49.80;92788.28;5034094;28;20342;-89
2022/01/07 03:18:30;;;;;;;3.15;1.38;;;;;;;-3.50;49.82;92719.28;5033815;28;20044;-89
2022/01/07 03:20:59;;;;;;;1.42;1.20;;;;;;;-3.48;50.09;92721.66;5033153;28;20029;-89
2022/01/07 03:23:38;;;;;;;5.32;1.27;;;;;;;-3.20;49.76;92767.56;5014149;28;20115;-88
2022/01/07 03:26:09;;;;;;;1.75;1.25;;;;;;;-3.51;49.73;92714.34;5031064;28;20056;-88
2022/01/07 03:28:54;;;;;;;1.58;1.20;;;;;;;-3.35;49.83;92747.28;5019711;28;20466;-89
2022/01/07 03:31:25;;;;;;;1.70;1.20;;;;;;;-3.54;50.19;92714.75;5016896;28;20042;-89
2022/01/07 03:33:56;;;;;;;1.92;1.17;;;;;;;-3.25;50.03;92760.47;5034816;28;20048;-89
2022/01/07 03:36:33;;;;;;;2.67;1.40;;;;;;;-3.55;50.33;92716.53;5018059;28;20049;-89
2022/01/07 03:39:08;;;;;;;1.38;1.20;;;;;;;-3.44;50.42;92728.75;5033429;28;20037;-89
2022/01/07 03:41:51;;;;;;;;;;;;;;;;;;;;;
2022/01/07 03:44:22;;;;;;;1.95;1.23;;;;;;;-3.34;50.47;92764.19;5038293;28;20496;-89
2022/01/07 03:46:57;;;;;;;1.75;1.17;;;;;;;-3.24;50.59;92779.16;5021983;28;20047;-89
2022/01/07 03:49:40;;;;;;;1.40;1.05;;;;;;;-3.62;50.28;92721.63;5037158;28;20087;-89
2022/01/07 03:52:32;;;;;;;1.58;1.05;;;;;;;-3.61;50.76;92712.16;5039263;28;20053;-89
2022/01/07 03:55:09;;;;;;;1.88;1.27;;;;;;;-3.47;50.53;92748.81;5052719;28;20047;-88
2022/01/07 03:57:50;;;;;;;1.25;1.10;;;;;;;-3.66;50.41;92714.53;5052239;28;20066;-89
2022/01/07 04:00:33;;;;;;;1.30;1.02;;;;;;;-3.66;50.00;92714.53;5021191;28;20037;-89
2022/01/07 04:03:04;;;;;;;1.10;1.00;;;;;;;-3.72;49.79;92712.75;5049615;28;20111;-88
2022/01/07 04:05:37;;;;;;;1.47;1.10;;;;;;;-3.69;50.17;92720.84;5000303;28;20048;-89
2022/01/07 04:08:12;;;;;;;2.00;1.23;;;;;;;-3.67;50.86;92721.44;5016644;28;20367;-89
2022/01/07 04:10:50;;;;;;;3.13;1.50;;;;;;;-3.32;50.97;92767.34;5002353;28;20044;-89
2022/01/07 04:13:24;;;;;;;2.20;1.30;;;;;;;-3.71;50.78;92715.13;5030174;28;20065;-88
2022/01/07 04:15:55;;;;;;;1.67;1.00;;;;;;;-3.39;50.85;92761.44;5035872;28;20060;-90
2022/01/07 04:18:39;;;;;;;1.95;1.15;;;;;;;-3.72;51.27;92710.97;5032881;28;20034;-88
2022/01/07 04:21:17;;;;;;;3.63;1.48;;;;;;;-3.31;51.54;92763.81;5027424;28;20033;-89
2022/01/07 04:24:02;;;;;;;2.38;1.40;;;;;;;-3.66;52.31;92710.19;5035044;28;20522;-88
2022/01/07 04:26:35;;;;;;;2.22;1.40;;;;;;;-3.47;52.69;92739.34;5018594;28;20065;-90
2022/01/07 04:29:06;;;;;;;1.73;1.25;;;;;;;-3.74;52.63;92702.69;5035836;28;20029;-89
2022/01/07 04:31:39;;;;;;;2.13;1.30;;;;;;;-3.74;52.50;92694.22;5032894;28;20045;-90
2022/01/07 04:34:12;;;;;;;1.55;1.20;;;;;;;-3.40;52.59;92750.41;5019805;28;20048;-90
2022/01/07 04:36:50;;;;;;;1.60;1.20;;;;;;;-3.73;53.06;92694.06;5030477;28;20095;-89
2022/01/07 04:39:36;;;;;;;2.40;1.40;;;;;;;-3.36;52.67;92769.50;4999931;28;20087;-89
2022/01/07 04:42:07;;;;;;;2.83;1.10;;;;;;;-3.76;52.59;92704.66;5016551;28;20087;-89
2022/01/07 04:44:45;;;;;;;1.95;1.20;;;;;;;-3.80;51.90;92703.50;5015687;28;20044;-89
2022/01/07 04:47:13;;;;;;;1.55;1.10;;;;;;;-3.46;51.71;92747.84;5051046;28;20036;-89
2022/01/07 04:49:51;;;;;;;1.10;1.00;;;;;;;-3.73;51.21;92704.28;5036528;28;20752;-89
2022/01/07 04:52:21;;;;;;;1.33;1.15;;;;;;;-3.57;50.69;92731.28;5051824;28;20036;-89
2022/01/07 04:55:09;;;;;;;2.40;1.23;;;;;;;-3.26;50.32;92778.59;5051913;28;20397;-89
2022/01/07 04:57:43;;;;;;;1.00;0.90;;;;;;;-3.45;50.16;92752.75;5036781;28;20044;-90
2022/01/07 05:00:29;;;;;;;0.90;0.90;;;;;;;-3.58;50.64;92730.50;5015993;28;20095;-89
2022/01/07 05:03:02;;;;;;;0.90;0.90;;;;;;;-3.46;49.63;92750.41;5023622;28;20095;-89
2022/01/07 05:05:38;;;;;;;1.20;1.10;;;;;;;-3.45;49.89;92751.97;5047963;28;20526;-89
2022/01/07 05:08:19;;;;;;;1.50;1.17;;;;;;;-3.48;49.77;92742.91;5035540;28;20032;-89
2022/01/07 05:10:57;;;;;;;1.75;1.10;;;;;;;-3.46;50.06;92743.50;5049386;28;20553;-89
2022/01/07 05:13:46;;;;;;;5.13;1.38;;;;;;;-3.64;50.28;92718.47;5034811;28;20041;-89
2022/01/07 05:16:26;;;;;;;1.70;1.20;;;;;;;-3.42;51.35;92754.16;5036024;28;20132;-89
2022/01/07 05:19:08;;;;;;;2.53;1.42;;;;;;;-3.62;51.93;92721.63;5035155;28;20171;-89
2022/01/07 05:21:54;;;;;;;1.10;1.00;;;;;;;-3.75;51.32;92711.38;5035344;28;20505;-89
2022/01/07 05:24:27;;;;;;;2.00;1.05;;;;;;;-3.77;50.81;92698.75;5034918;28;20040;-89
2022/01/07 05:27:00;;;;;;;1.05;0.98;;;;;;;-3.80;50.28;92693.25;5035511;28;20052;-89
2022/01/07 05:29:36;;;;;;;1.40;1.20;;;;;;;-3.47;50.81;92746.25;5032418;28;20041;-89
2022/01/07 05:32:12;;;;;;;2.15;1.40;;;;;;;-3.49;50.76;92745.66;5050883;28;20044;-89
2022/01/07 05:34:45;;;;;;;1.50;1.08;;;;;;;-3.92;51.15;92684.56;5031181;28;20033;-90
2022/01/07 05:37:20;;;;;;;;;;;;;;;-3.38;51.53;92779.19;4999024;28;20037;-89
2022/01/07 05:39:46;;;;;;;;;;;;;;;-3.40;51.58;92775.22;4999276;28;19920;-89
2022/01/07 05:42:26;;;;;;;1.10;1.00;;;;;;;-3.58;51.42;92747.59;5014467;28;19960;-90
2022/01/07 05:45:05;;;;;;;;;;;;;;;;;;;;;
2022/01/07 05:50:22;;;;;;;0.93;0.90;;;;;;;-3.61;52.31;92746.22;5049734;28;20448;-89
2022/01/07 05:52:58;;;;;;;1.05;1.00;;;;;;;-3.88;52.24;92711.31;5034193;28;20041;-89
2022/01/07 05:55:27;;;;;;;1.10;1.00;;;;;;;-4.00;52.54;92693.19;5049440;28;20545;-89
2022/01/07 05:57:55;;;;;;;1.65;1.20;;;;;;;-3.93;52.25;92703.44;5017653;28;20036;-89
2022/01/07 06:00:28;;;;;;;1.10;1.00;;;;;;;-3.83;52.03;92719.19;5023284;28;20647;-89
2022/01/07 06:03:13;;;;;;;1.65;1.10;;;;;;;-3.84;52.98;92715.06;5040179;28;20060;-89
2022/01/07 06:05:49;;;;;;;0.90;0.90;;;;;;;-3.84;52.69;92720.19;5035148;28;20037;-89
2022/01/07 06:08:19;;;;;;;1.42;1.10;;;;;;;-3.86;52.20;92714.47;5032702;28;20394;-89
2022/01/07 06:10:55;;;;;;;1.08;0.98;;;;;;;-3.90;51.97;92710.72;5008693;28;20048;-89
2022/01/07 06:13:24;;;;;;;1.58;1.10;;;;;;;-3.87;52.48;92720.56;5023772;28;20044;-90
2022/01/07 06:16:06;;;;;;;1.75;1.20;;;;;;;-3.83;52.17;92724.31;5050590;28;20029;-89
2022/01/07 06:19:03;;;;;;;1.10;1.00;;;;;;;-3.81;53.22;92727.47;5049339;28;20033;-90
2022/01/07 06:21:51;;;;;;;;;;;;;;;;;;;;;
2022/01/07 06:24:27;;;;;;;2.45;1.45;;;;;;;-3.47;55.50;92764.16;5048348;28;20057;-89
2022/01/07 06:26:55;;;;;;;1.85;1.20;;;;;;;-3.70;55.66;92721.00;5049074;28;20041;-89
2022/01/07 06:29:23;;;;;;;1.90;1.30;;;;;;;-3.75;55.95;92711.38;5013606;28;20136;-88
2022/01/07 06:31:59;;;;;;;2.00;1.30;;;;;;;-3.52;56.09;92746.84;5034489;28;20470;-89
2022/01/07 06:34:34;;;;;;;1.33;1.17;;;;;;;-3.79;56.02;92710.94;5049312;28;20052;-88
2022/01/07 06:37:13;;;;;;;;;;;;;;;;;;;;;
2022/01/07 06:39:50;;;;;;;1.77;1.30;;;;;;;-3.38;56.19;92753.56;5049245;28;20433;-89
2022/01/07 06:42:34;;;;;;;1.33;1.10;;;;;;;-3.62;56.08;92711.41;5017294;28;20095;-89
2022/01/07 06:45:06;;;;;;;3.05;1.15;;;;;;;-3.29;55.67;92766.97;5048786;28;20108;-89
2022/01/07 06:47:41;;;;;;;1.65;1.30;;;;;;;-3.29;56.34;92756.72;5049667;28;20044;-89
2022/01/07 06:50:10;;;;;;;1.55;1.15;;;;;;;-3.30;55.88;92765.38;5033168;28;20041;-89
2022/01/07 06:52:43;;;;;;;2.60;1.50;;;;;;;-3.53;56.25;92716.31;5029392;28;20029;-88
2022/01/07 06:55:21;;;;;;;1.83;1.23;;;;;;;-3.18;56.27;92763.81;5000321;28;20037;-89
2022/01/07 06:57:57;;;;;;;1.38;1.10;;;;;;;-3.10;55.95;92769.75;5012930;28;20050;-89
2022/01/07 07:00:45;;;;;;;3.63;1.40;;;;;;;-2.99;55.66;92769.19;5029976;28;20431;-89
2022/01/07 07:03:20;;;;;;;2.92;1.50;;;;;;;-2.85;55.53;92785.34;5042058;28;20159;-89
2022/01/07 07:05:48;;;;;;;1.67;1.35;;;;;;;-3.06;55.74;92740.19;5051708;28;20041;-89
2022/01/07 07:08:32;;;;;;;;;;;;;;;;;;;;;
2022/01/07 07:11:02;;;;;;;2.30;1.30;;;;;;;-2.80;55.42;92765.81;5018756;28;20049;-90
2022/01/07 07:13:38;;;;;;;1.92;1.30;;;;;;;-2.99;54.93;92730.75;5041742;28;20040;-90
2022/01/07 07:16:31;;;;;;;2.10;1.30;;;;;;;-2.75;54.53;92748.09;5036856;28;20505;-90
2022/01/07 07:19:12;;;;;;;1.88;1.10;;;;;;;-2.84;54.64;92723.63;5028978;28;20041;-90
2022/01/07 07:21:50;;;;;;;1.80;1.13;;;;;;;-2.70;53.85;92729.56;5027314;28;20120;-90
2022/01/07 07:24:26;;;;;;;1.80;1.23;;;;;;;-2.61;53.90;92727.53;5045464;28;20040;-91
2022/01/07 07:27:19;;;;;;;2.20;1.10;;;;;;;-2.48;52.98;92732.66;5060913;28;20066;-90
2022/01/07 07:33:18;;;;;;;1.38;1.23;;;;;;;1.17;46.34;92724.53;5025300;28;20163;-91
2022/01/07 07:38:25;;;;;;;1.40;1.10;;;;;;;6.36;35.62;92749.69;5053286;28;20064;-91
2022/01/07 07:41:12;;;;;;;2.67;1.40;;;;;;;7.76;32.95;92702.81;5048470;28;20041;-91
2022/01/07 07:43:57;;;;;;;2.65;1.20;;;;;;;9.81;29.44;92760.06;5043825;28;20069;-91
2022/01/07 07:46:37;;;;;;;;;;;;;;;;;;;;;
2022/01/07 07:50:00;;;;;;;2.53;1.38;;;;;;;11.90;23.91;92723.81;5030979;28;20047;-91
2022/01/07 07:52:40;;;;;;;2.75;1.40;;;;;;;12.63;23.78;92707.25;5048826;28;20057;-91
2022/01/07 07:55:14;;;;;;;1.67;1.20;;;;;;;12.47;21.43;92724.34;5032203;28;20037;-92
2022/01/07 07:57:57;;;;;;;3.20;1.23;;;;;;;12.97;21.10;92771.75;5047358;28;20045;-92
2022/01/07 08:00:46;;;;;;;2.63;1.55;;;;;;;12.21;21.41;92701.22;5027367;28;20047;-92
2022/01/07 08:03:30;;;;;;;2.42;1.30;;;;;;;11.07;22.95;92750.41;5054547;28;20063;-91
2022/01/07 08:06:05;;;;;;;2.00;1.20;;;;;;;10.25;25.50;92753.16;5034604;28;20045;-92
2022/01/07 08:08:47;;;;;;;2.03;1.30;;;;;;;8.74;27.13;92749.25;5021552;28;20037;-93
2022/01/07 08:17:45;;;;;;;2.35;1.40;;;;;;;7.39;30.00;92750.75;5044740;28;20244;-91
2022/01/07 08:20:33;;;;;;;2.60;1.30;;;;;;;8.29;29.47;92737.13;5025157;28;20057;-91
2022/01/07 08:23:40;;;;;;;2.25;1.50;;;;;;;10.99;25.84;92757.06;5048553;28;20398;-92
2022/01/07 08:26:37;;;;;;;4.40;2.50;;;;;;;10.78;24.97;92724.31;5036026;28;20043;-92
2022/01/07 08:29:26;;;;;;;4.20;2.40;;;;;;;8.87;27.77;92713.16;5061400;28;20058;-92
2022/01/07 08:35:55;;;;;;;5.00;2.40;;;;;;;7.33;30.11;92778.59;5049816;23;20438;-76
2022/01/07 08:38:21;;;;;;;5.72;2.53;;;;;;;7.03;30.07;92779.34;5052413;28;20037;-76
2022/01/07 08:40:46;;;;;;;4.03;2.10;;;;;;;6.16;31.49;92781.56;5041829;28;20124;-75
2022/01/07 08:43:12;;;;;;;3.28;1.60;;;;;;;5.93;32.13;92783.47;5034748;28;20250;-73
2022/01/07 08:45:41;;;;;;;2.42;1.50;;;;;;;5.36;32.72;92773.69;5028495;28;20121;-75
2022/01/07 08:48:07;;;;;;;2.60;1.30;;;;;;;4.63;33.60;92776.56;5008791;28;20052;-75
2022/01/07 08:50:32;;;;;;;3.65;1.42;;;;;;;4.08;34.86;92785.22;5029618;28;20140;-79
2022/01/07 08:53:01;;;;;;;2.75;1.40;;;;;;;3.81;35.63;92785.09;5044646;28;20041;-80
2022/01/07 08:55:27;;;;;;;3.50;1.40;;;;;;;3.55;36.34;92782.13;5043252;28;20025;-79
2022/01/07 08:57:52;;;;;;;2.92;1.52;;;;;;;3.05;37.28;92796.56;5023089;28;20060;-78
2022/01/07 09:00:18;;;;;;;2.42;1.17;;;;;;;2.79;36.84;92784.19;5035755;28;20034;-79
2022/01/07 09:02:44;;;;;;;1.77;1.20;;;;;;;2.76;37.24;92784.66;5036577;28;20506;-79
2022/01/07 09:05:09;;;;;;;3.58;1.60;;;;;;;2.66;36.29;92785.25;5044331;28;20026;-80
2022/01/07 09:07:35;;;;;;;2.28;1.23;;;;;;;2.33;36.61;92791.06;5041474;28;20419;-79
2022/01/07 09:10:01;;;;;;;2.50;1.38;;;;;;;2.41;37.24;92798.44;5040533;28;20040;-79
2022/01/07 09:12:26;;;;;;;1.67;1.10;;;;;;;2.40;36.72;92807.22;5022521;28;20037;-79
2022/01/07 09:14:52;;;;;;;2.63;1.30;;;;;;;2.15;36.75;92797.16;5022909;28;20052;-79
2022/01/07 09:17:17;;;;;;;3.17;1.48;;;;;;;2.09;36.51;92798.84;5030141;28;20052;-80
2022/01/07 09:19:43;;;;;;;6.07;2.15;;;;;;;2.04;37.09;92796.16;4990219;28;20088;-79
2022/01/07 09:22:09;;;;;;;2.05;1.30;;;;;;;1.98;36.84;92797.84;5037977;28;20044;-78
2022/01/07 09:24:35;;;;;;;4.57;1.85;;;;;;;1.81;36.93;92791.78;5038004;28;20044;-79
2022/01/07 09:27:00;;;;;;;2.88;1.33;;;;;;;1.75;36.75;92790.88;5038184;28;20120;-79
2022/01/07 09:29:27;;;;;;;4.13;1.67;;;;;;;1.73;37.29;92787.72;5038910;28;20068;-80
2022/01/07 09:31:54;;;;;;;2.30;1.33;;;;;;;1.77;37.58;92791.44;5014159;28;20105;-79
2022/01/07 09:34:20;;;;;;;2.67;1.48;;;;;;;1.75;39.22;92798.63;5038115;28;20036;-79
2022/01/07 09:36:46;;;;;;;2.80;1.60;;;;;;;1.48;43.10;92800.06;5040566;28;20042;-79
2022/01/07 09:39:12;;;;;;;2.63;1.50;;;;;;;1.50;42.75;92792.88;5040293;28;20033;-80
2022/01/07 09:41:38;;;;;;;3.03;1.38;;;;;;;1.66;39.94;92787.06;5022340;28;20113;-79
2022/01/07 09:44:10;;;;;;;2.53;1.20;;;;;;;1.82;39.79;92790.78;5022547;28;20564;-79
2022/01/07 09:46:36;;;;;;;2.25;1.17;;;;;;;2.03;37.16;92781.69;5022272;28;20095;-79
2022/01/07 09:49:04;;;;;;;1.17;1.00;;;;;;;2.23;36.44;92787.28;5022171;28;20044;-79
2022/01/07 09:51:30;;;;;;;1.52;1.10;;;;;;;1.92;37.82;92780.69;5021876;28;20021;-79
2022/01/07 09:53:56;;;;;;;2.35;1.10;;;;;;;1.84;38.31;92783.59;5020938;28;20029;-79
2022/01/07 09:56:22;;;;;;;1.73;1.10;;;;;;;1.74;39.19;92783.38;5021844;28;20033;-78
2022/01/07 09:58:47;;;;;;;2.28;1.23;;;;;;;1.45;39.75;92776.28;5039216;28;20033;-80
2022/01/07 10:01:19;;;;;;;2.35;1.50;;;;;;;1.43;40.29;92770.56;5021717;28;20033;-79
2022/01/07 10:03:46;;;;;;;6.00;2.10;;;;;;;1.49;42.07;92776.63;5039714;28;20037;-79
2022/01/07 10:06:24;;;;;;;4.15;2.05;;;;;;;1.41;41.89;92775.16;5021209;28;20040;-79
2022/01/07 10:09:11;;;;;;;3.13;1.92;;;;;;;1.38;41.51;92774.81;5022523;28;20029;-79
2022/01/07 10:11:37;;;;;;;2.83;1.33;;;;;;;1.06;42.91;92753.66;5022104;28;20572;-80
2022/01/07 10:14:22;;;;;;;4.22;2.00;;;;;;;1.29;42.11;92768.41;5035176;28;20038;-81
2022/01/07 10:16:56;;;;;;;2.67;1.42;;;;;;;1.31;45.05;92767.19;5002216;28;20169;-77
2022/01/07 10:19:29;;;;;;;2.33;1.30;;;;;;;1.20;43.98;92767.94;5015592;28;20037;-79
2022/01/07 10:21:57;;;;;;;3.03;1.70;;;;;;;1.03;49.39;92753.09;5013565;28;20051;-79
2022/01/07 10:24:23;;;;;;;2.75;1.90;;;;;;;0.99;50.58;92757.16;5035335;28;20132;-79
2022/01/07 10:27:10;;;;;;;3.47;1.40;;;;;;;1.03;49.77;92753.09;5037028;28;20495;-80
2022/01/07 10:29:44;;;;;;;3.35;1.70;;;;;;;1.19;49.76;92754.28;5035771;28;20030;-80
2022/01/07 10:32:19;;;;;;;3.88;1.70;;;;;;;1.21;48.53;92754.03;5003023;28;20542;-79
2022/01/07 10:35:16;;;;;;;2.67;1.63;;;;;;;1.24;49.00;92753.59;5029537;28;20030;-80
2022/01/07 10:37:59;;;;;;;2.88;1.65;;;;;;;1.45;49.99;92744.53;4991785;28;20045;-79
2022/01/07 10:40:39;;;;;;;2.25;1.45;;;;;;;1.54;50.47;92735.44;5019105;28;20106;-80
2022/01/07 10:43:11;;;;;;;3.25;1.80;;;;;;;1.60;50.23;92736.34;5035149;28;20037;-79
2022/01/07 10:45:39;;;;;;;2.08;1.40;;;;;;;1.62;47.61;92740.28;5034001;28;20397;-79
2022/01/07 10:48:09;;;;;;;3.58;1.67;;;;;;;1.57;48.94;92726.47;5017570;28;20053;-78
2022/01/07 10:50:55;;;;;;;3.72;1.67;;;;;;;1.53;50.60;92723.56;5018539;28;20041;-77
2022/01/07 10:53:27;;;;;;;2.60;1.58;;;;;;;1.25;51.20;92706.94;5026169;28;20046;-78
2022/01/07 10:55:59;;;;;;;7.13;2.03;;;;;;;1.06;51.51;92699.53;5027066;28;20580;-77
2022/01/07 10:58:26;;;;;;;3.70;1.90;;;;;;;0.90;52.59;92694.03;5008214;28;20034;-76
2022/01/07 11:00:52;;;;;;;3.08;1.52;;;;;;;0.70;52.13;92680.63;5009121;28;20048;-78
2022/01/07 11:03:18;;;;;;;3.80;2.00;;;;;;;0.60;52.70;92679.38;5000886;28;20088;-78
2022/01/07 11:05:44;;;;;;;5.63;2.55;;;;;;;0.89;52.06;92684.72;5003014;28;20543;-77
2022/01/07 11:08:14;;;;;;;4.20;2.13;;;;;;;0.62;53.22;92677.38;5007757;28;20101;-78
2022/01/07 11:10:41;;;;;;;6.47;2.42;;;;;;;0.54;53.24;92671.72;4996691;28;20038;-80
2022/01/07 11:13:08;;;;;;;3.83;2.00;;;;;;;0.64;52.71;92666.06;5032469;28;20049;-79
2022/01/07 11:15:36;;;;;;;4.38;2.30;;;;;;;0.53;52.70;92659.88;5017203;28;20041;-82
2022/01/07 11:18:01;;;;;;;4.28;1.98;;;;;;;0.70;52.58;92660.00;5024974;28;20038;-80
2022/01/07 11:20:27;;;;;;;8.30;2.40;;;;;;;0.82;53.03;92655.69;5021201;28;20053;-80
2022/01/07 11:22:54;;;;;;;3.67;2.20;;;;;;;0.82;53.08;92658.25;5009681;28;20045;-77
2022/01/07 11:25:20;;;;;;;4.43;2.20;;;;;;;0.86;52.78;92648.28;5008493;28;20030;-79
2022/01/07 11:27:58;;;;;;;4.43;1.90;;;;;;;1.11;52.36;92642.94;5017457;28;20498;-78
2022/01/07 11:30:28;;;;;;;4.00;2.00;;;;;;;1.45;50.50;92642.13;5033901;28;20108;-78
2022/01/07 11:32:54;;;;;;;4.35;2.40;;;;;;;1.44;51.20;92637.19;5031307;28;20030;-80
2022/01/07 11:35:20;;;;;;;4.85;2.45;;;;;;;1.55;51.27;92635.59;5027958;28;20506;-82
2022/01/07 11:37:57;;;;;;;4.78;2.28;;;;;;;2.41;49.44;92627.91;5028335;28;20037;-80
2022/01/07 11:40:29;;;;;;;8.77;2.67;;;;;;;2.40;48.99;92631.53;5012493;28;20419;-82
2022/01/07 11:43:05;;;;;;;5.38;2.28;;;;;;;2.55;48.88;92623.25;5022384;28;20040;-83
2022/01/07 11:45:33;;;;;;;4.95;2.33;;;;;;;2.56;48.26;92619.66;5008217;28;20479;-80
2022/01/07 11:48:09;;;;;;;2.65;1.80;;;;;;;2.52;48.16;92621.13;5010994;28;20553;-79
2022/01/07 11:51:11;;;;;;;8.10;2.58;;;;;;;3.05;47.47;92625.09;5031405;28;20133;-83
2022/01/07 11:53:40;;;;;;;5.95;2.95;;;;;;;2.71;47.92;92622.50;5017704;28;20129;-82
2022/01/07 11:56:08;;;;;;;4.68;2.88;;;;;;;2.97;47.84;92618.47;5033906;28;20022;-82
2022/01/07 11:58:44;;;;;;;5.25;2.50;;;;;;;2.82;47.35;92616.47;5017033;28;20049;-81
2022/01/07 12:01:23;;;;;;;3.22;1.77;;;;;;;2.17;49.02;92630.63;5030256;28;20112;-81
2022/01/07 12:03:49;;;;;;;3.40;1.92;;;;;;;1.71;50.61;92619.41;5033159;28;20060;-81
2022/01/07 12:06:24;;;;;;;3.38;1.98;;;;;;;2.69;48.69;92611.59;5033104;28;20514;-83
2022/01/07 12:08:56;;;;;;;6.80;3.28;;;;;;;3.34;47.35;92605.06;5030836;28;20029;-82
2022/01/07 12:11:23;;;;;;;6.75;2.42;;;;;;;2.85;46.97;92600.47;5035929;28;20068;-82
2022/01/07 12:13:49;;;;;;;4.07;2.30;;;;;;;3.12;47.41;92592.06;5013725;28;20037;-82
2022/01/07 12:16:21;;;;;;;3.58;1.88;;;;;;;3.31;46.81;92602.94;4998369;28;20061;-82
2022/01/07 12:18:47;;;;;;;5.47;2.58;;;;;;;2.80;47.80;92602.22;5016995;28;20494;-82
2022/01/07 12:21:13;;;;;;;5.18;2.33;;;;;;;2.67;47.72;92601.50;5020669;28;20051;-79
2022/01/07 12:23:42;;;;;;;2.67;1.45;;;;;;;3.04;47.17;92595.84;5001249;28;20096;-78
2022/01/07 12:26:09;;;;;;;7.15;2.55;;;;;;;3.47;46.22;92604.72;5017247;28;20034;-77
2022/01/07 12:28:37;;;;;;;1.95;1.58;;;;;;;2.65;47.02;92588.00;5026898;28;20084;-75
2022/01/07 12:31:07;;;;;;;5.28;1.77;;;;;;;2.20;49.00;92578.47;5024300;28;20083;-79
2022/01/07 12:33:33;;;;;;;4.63;2.33;;;;;;;2.41;48.43;92582.22;5024514;28;20451;-78
2022/01/07 12:35:59;;;;;;;4.93;2.65;;;;;;;2.82;48.53;92571.75;5017713;28;20034;-78
2022/01/07 12:38:24;;;;;;;1.75;1.33;;;;;;;3.10;47.02;92569.03;5006672;28;20091;-78
2022/01/07 12:40:52;;;;;;;4.13;2.20;;;;;;;2.92;46.83;92553.75;5024069;28;20072;-79
2022/01/07 12:43:22;;;;;;;3.13;1.40;;;;;;;3.17;47.37;92555.13;5019351;28;20590;-78
2022/01/07 12:45:57;;;;;;;3.55;1.83;;;;;;;2.71;48.43;92560.44;5009904;28;20511;-78
2022/01/07 12:48:33;;;;;;;5.40;2.38;;;;;;;3.30;46.61;92553.00;5034034;28;20495;-78